sensor_id;sensor_type;location;lat;lon;timestamp;P1;durP1;ratioP1;P2;durP2;ratioP2
70313;SDS011;57725;47.526;18.986;2022-08-19T00:00:11;4.35;;;3.95;;
70313;SDS011;57725;47.526;18.986;2022-08-19T00:02:39;4.40;;;4.00;;
70313;SDS011;57725;47.526;18.986;2022-08-19T00:05:04;4.15;;;3.78;;
70313;SDS011;57725;47.526;18.986;2022-08-19T00:07:30;4.50;;;4.10;;
70313;SDS011;57725;47.526;18.986;2022-08-19T00:09:57;4.88;;;3.55;;
70313;SDS011;57725;47.526;18.986;2022-08-19T00:12:23;4.07;;;3.58;;
70313;SDS011;57725;47.526;18.986;2022-08-19T00:14:48;4.28;;;3.88;;
70313;SDS011;57725;47.526;18.986;2022-08-19T00:17:19;4.53;;;4.10;;
70313;SDS011;57725;47.526;18.986;2022-08-19T00:19:47;4.97;;;4.00;;
70313;SDS011;57725;47.526;18.986;2022-08-19T00:22:12;4.40;;;4.03;;
70313;SDS011;57725;47.526;18.986;2022-08-19T00:24:37;4.50;;;4.10;;
70313;SDS011;57725;47.526;18.986;2022-08-19T00:27:08;4.47;;;4.07;;
70313;SDS011;57725;47.526;18.986;2022-08-19T00:29:33;4.38;;;3.88;;
70313;SDS011;57725;47.526;18.986;2022-08-19T00:31:59;4.88;;;4.45;;
70313;SDS011;57725;47.526;18.986;2022-08-19T00:34:25;4.65;;;4.22;;
70313;SDS011;57725;47.526;18.986;2022-08-19T00:36:54;4.80;;;4.30;;
70313;SDS011;57725;47.526;18.986;2022-08-19T00:39:23;4.38;;;3.97;;
70313;SDS011;57725;47.526;18.986;2022-08-19T00:41:49;5.22;;;4.72;;
70313;SDS011;57725;47.526;18.986;2022-08-19T00:44:19;5.10;;;4.60;;
70313;SDS011;57725;47.526;18.986;2022-08-19T00:46:50;4.97;;;4.35;;
70313;SDS011;57725;47.526;18.986;2022-08-19T00:52:29;5.03;;;4.53;;
70313;SDS011;57725;47.526;18.986;2022-08-19T00:54:58;4.97;;;4.57;;
70313;SDS011;57725;47.526;18.986;2022-08-19T00:57:35;5.50;;;5.00;;
70313;SDS011;57725;47.526;18.986;2022-08-19T01:00:06;4.68;;;4.28;;
70313;SDS011;57725;47.526;18.986;2022-08-19T01:02:35;5.25;;;4.75;;
70313;SDS011;57725;47.526;18.986;2022-08-19T01:05:04;6.60;;;5.07;;
70313;SDS011;57725;47.526;18.986;2022-08-19T01:07:34;5.07;;;4.60;;
70313;SDS011;57725;47.526;18.986;2022-08-19T01:10:00;5.72;;;5.22;;
70313;SDS011;57725;47.526;18.986;2022-08-19T01:12:26;5.13;;;4.63;;
70313;SDS011;57725;47.526;18.986;2022-08-19T01:14:52;7.03;;;5.78;;
70313;SDS011;57725;47.526;18.986;2022-08-19T01:17:21;6.80;;;6.10;;
70313;SDS011;57725;47.526;18.986;2022-08-19T01:19:47;4.78;;;4.32;;
70313;SDS011;57725;47.526;18.986;2022-08-19T01:22:19;6.18;;;4.82;;
70313;SDS011;57725;47.526;18.986;2022-08-19T01:24:50;5.65;;;5.15;;
70313;SDS011;57725;47.526;18.986;2022-08-19T01:27:17;6.60;;;5.00;;
70313;SDS011;57725;47.526;18.986;2022-08-19T01:29:43;5.85;;;5.07;;
70313;SDS011;57725;47.526;18.986;2022-08-19T01:32:11;5.80;;;5.30;;
70313;SDS011;57725;47.526;18.986;2022-08-19T01:34:38;6.28;;;5.68;;
70313;SDS011;57725;47.526;18.986;2022-08-19T01:37:10;5.32;;;4.82;;
70313;SDS011;57725;47.526;18.986;2022-08-19T01:39:37;5.30;;;4.80;;
70313;SDS011;57725;47.526;18.986;2022-08-19T01:42:05;5.82;;;5.28;;
70313;SDS011;57725;47.526;18.986;2022-08-19T01:44:34;10.60;;;5.68;;
70313;SDS011;57725;47.526;18.986;2022-08-19T01:47:02;7.57;;;5.50;;
70313;SDS011;57725;47.526;18.986;2022-08-19T01:49:28;18.90;;;7.15;;
70313;SDS011;57725;47.526;18.986;2022-08-19T01:51:54;19.15;;;5.97;;
70313;SDS011;57725;47.526;18.986;2022-08-19T01:54:21;29.05;;;8.55;;
70313;SDS011;57725;47.526;18.986;2022-08-19T01:56:53;12.15;;;6.65;;
70313;SDS011;57725;47.526;18.986;2022-08-19T01:59:24;14.75;;;5.97;;
70313;SDS011;57725;47.526;18.986;2022-08-19T02:01:52;6.88;;;5.68;;
70313;SDS011;57725;47.526;18.986;2022-08-19T02:04:18;7.30;;;5.85;;
70313;SDS011;57725;47.526;18.986;2022-08-19T02:06:43;6.80;;;6.00;;
70313;SDS011;57725;47.526;18.986;2022-08-19T02:09:09;17.10;;;6.75;;
70313;SDS011;57725;47.526;18.986;2022-08-19T02:11:35;33.90;;;6.43;;
70313;SDS011;57725;47.526;18.986;2022-08-19T02:14:03;10.95;;;6.50;;
70313;SDS011;57725;47.526;18.986;2022-08-19T02:16:30;14.98;;;6.45;;
70313;SDS011;57725;47.526;18.986;2022-08-19T02:18:57;5.93;;;5.43;;
70313;SDS011;57725;47.526;18.986;2022-08-19T02:21:25;11.38;;;6.30;;
70313;SDS011;57725;47.526;18.986;2022-08-19T02:23:54;6.63;;;6.00;;
70313;SDS011;57725;47.526;18.986;2022-08-19T02:26:21;6.70;;;6.10;;
70313;SDS011;57725;47.526;18.986;2022-08-19T02:28:46;7.05;;;6.35;;
70313;SDS011;57725;47.526;18.986;2022-08-19T02:31:14;7.10;;;6.40;;
70313;SDS011;57725;47.526;18.986;2022-08-19T02:33:42;8.98;;;6.00;;
70313;SDS011;57725;47.526;18.986;2022-08-19T02:36:08;6.60;;;5.90;;
70313;SDS011;57725;47.526;18.986;2022-08-19T02:38:38;7.68;;;6.35;;
70313;SDS011;57725;47.526;18.986;2022-08-19T02:41:08;7.25;;;6.20;;
70313;SDS011;57725;47.526;18.986;2022-08-19T02:43:40;7.07;;;6.38;;
70313;SDS011;57725;47.526;18.986;2022-08-19T02:48:46;5.72;;;5.22;;
70313;SDS011;57725;47.526;18.986;2022-08-19T02:51:18;6.78;;;6.10;;
70313;SDS011;57725;47.526;18.986;2022-08-19T02:53:53;7.53;;;6.07;;
70313;SDS011;57725;47.526;18.986;2022-08-19T02:56:19;7.20;;;6.50;;
70313;SDS011;57725;47.526;18.986;2022-08-19T02:58:47;7.28;;;6.60;;
70313;SDS011;57725;47.526;18.986;2022-08-19T03:01:26;6.95;;;6.35;;
70313;SDS011;57725;47.526;18.986;2022-08-19T03:03:53;7.30;;;6.60;;
70313;SDS011;57725;47.526;18.986;2022-08-19T03:06:20;6.70;;;6.10;;
70313;SDS011;57725;47.526;18.986;2022-08-19T03:08:46;7.18;;;6.50;;
70313;SDS011;57725;47.526;18.986;2022-08-19T03:11:15;7.10;;;6.50;;
70313;SDS011;57725;47.526;18.986;2022-08-19T03:13:42;7.05;;;6.35;;
70313;SDS011;57725;47.526;18.986;2022-08-19T03:16:08;7.10;;;6.43;;
70313;SDS011;57725;47.526;18.986;2022-08-19T03:18:34;7.47;;;6.78;;
70313;SDS011;57725;47.526;18.986;2022-08-19T03:21:02;7.22;;;6.53;;
70313;SDS011;57725;47.526;18.986;2022-08-19T03:23:30;7.35;;;6.45;;
70313;SDS011;57725;47.526;18.986;2022-08-19T03:25:56;8.18;;;6.85;;
70313;SDS011;57725;47.526;18.986;2022-08-19T03:28:21;7.20;;;6.53;;
70313;SDS011;57725;47.526;18.986;2022-08-19T03:30:57;7.82;;;7.13;;
70313;SDS011;57725;47.526;18.986;2022-08-19T03:33:25;7.03;;;6.32;;
70313;SDS011;57725;47.526;18.986;2022-08-19T03:38:32;7.18;;;6.50;;
70313;SDS011;57725;47.526;18.986;2022-08-19T03:41:01;7.50;;;6.75;;
70313;SDS011;57725;47.526;18.986;2022-08-19T03:43:33;7.25;;;6.55;;
70313;SDS011;57725;47.526;18.986;2022-08-19T03:46:01;7.57;;;6.90;;
70313;SDS011;57725;47.526;18.986;2022-08-19T03:48:29;7.57;;;6.53;;
70313;SDS011;57725;47.526;18.986;2022-08-19T03:50:58;7.32;;;6.68;;
70313;SDS011;57725;47.526;18.986;2022-08-19T03:53:24;8.10;;;7.30;;
70313;SDS011;57725;47.526;18.986;2022-08-19T03:55:51;8.10;;;7.30;;
70313;SDS011;57725;47.526;18.986;2022-08-19T03:58:19;8.02;;;7.25;;
70313;SDS011;57725;47.526;18.986;2022-08-19T04:00:45;8.00;;;7.20;;
70313;SDS011;57725;47.526;18.986;2022-08-19T04:03:13;7.50;;;6.80;;
70313;SDS011;57725;47.526;18.986;2022-08-19T04:05:40;7.65;;;6.85;;
70313;SDS011;57725;47.526;18.986;2022-08-19T04:08:06;7.75;;;7.05;;
70313;SDS011;57725;47.526;18.986;2022-08-19T04:10:35;7.90;;;7.15;;
70313;SDS011;57725;47.526;18.986;2022-08-19T04:13:02;8.57;;;7.80;;
70313;SDS011;57725;47.526;18.986;2022-08-19T04:15:30;8.98;;;8.07;;
70313;SDS011;57725;47.526;18.986;2022-08-19T04:18:04;8.55;;;7.47;;
70313;SDS011;57725;47.526;18.986;2022-08-19T04:20:31;8.30;;;7.50;;
70313;SDS011;57725;47.526;18.986;2022-08-19T04:22:58;7.43;;;6.72;;
70313;SDS011;57725;47.526;18.986;2022-08-19T04:25:23;10.50;;;7.55;;
70313;SDS011;57725;47.526;18.986;2022-08-19T04:27:51;8.15;;;7.35;;
70313;SDS011;57725;47.526;18.986;2022-08-19T04:30:16;8.77;;;7.28;;
70313;SDS011;57725;47.526;18.986;2022-08-19T04:32:42;7.93;;;7.15;;
70313;SDS011;57725;47.526;18.986;2022-08-19T04:35:08;8.40;;;7.47;;
70313;SDS011;57725;47.526;18.986;2022-08-19T04:37:34;8.07;;;7.28;;
70313;SDS011;57725;47.526;18.986;2022-08-19T04:40:02;7.97;;;7.20;;
70313;SDS011;57725;47.526;18.986;2022-08-19T04:42:47;8.75;;;7.93;;
70313;SDS011;57725;47.526;18.986;2022-08-19T04:45:15;8.00;;;7.20;;
70313;SDS011;57725;47.526;18.986;2022-08-19T04:47:42;8.35;;;7.55;;
70313;SDS011;57725;47.526;18.986;2022-08-19T04:50:09;8.20;;;7.47;;
70313;SDS011;57725;47.526;18.986;2022-08-19T04:52:36;8.70;;;7.80;;
70313;SDS011;57725;47.526;18.986;2022-08-19T04:55:02;7.68;;;6.97;;
70313;SDS011;57725;47.526;18.986;2022-08-19T04:57:30;7.40;;;6.70;;
70313;SDS011;57725;47.526;18.986;2022-08-19T04:59:58;9.98;;;8.02;;
70313;SDS011;57725;47.526;18.986;2022-08-19T05:02:23;8.50;;;7.72;;
70313;SDS011;57725;47.526;18.986;2022-08-19T05:04:50;9.38;;;8.48;;
70313;SDS011;57725;47.526;18.986;2022-08-19T05:07:21;9.13;;;7.70;;
70313;SDS011;57725;47.526;18.986;2022-08-19T05:09:49;8.50;;;7.70;;
70313;SDS011;57725;47.526;18.986;2022-08-19T05:12:20;8.80;;;7.75;;
70313;SDS011;57725;47.526;18.986;2022-08-19T05:14:47;8.80;;;8.00;;
70313;SDS011;57725;47.526;18.986;2022-08-19T05:17:14;8.60;;;7.70;;
70313;SDS011;57725;47.526;18.986;2022-08-19T05:19:40;8.23;;;7.43;;
70313;SDS011;57725;47.526;18.986;2022-08-19T05:22:23;8.30;;;7.50;;
70313;SDS011;57725;47.526;18.986;2022-08-19T05:25:07;9.23;;;8.00;;
70313;SDS011;57725;47.526;18.986;2022-08-19T05:27:37;9.27;;;8.38;;
70313;SDS011;57725;47.526;18.986;2022-08-19T05:30:03;9.63;;;8.70;;
70313;SDS011;57725;47.526;18.986;2022-08-19T05:32:37;9.35;;;8.45;;
70313;SDS011;57725;47.526;18.986;2022-08-19T05:35:08;8.70;;;7.90;;
70313;SDS011;57725;47.526;18.986;2022-08-19T05:37:34;9.20;;;8.40;;
70313;SDS011;57725;47.526;18.986;2022-08-19T05:40:00;8.70;;;7.90;;
70313;SDS011;57725;47.526;18.986;2022-08-19T05:42:28;8.93;;;8.02;;
70313;SDS011;57725;47.526;18.986;2022-08-19T05:44:56;8.68;;;7.88;;
70313;SDS011;57725;47.526;18.986;2022-08-19T05:47:21;9.05;;;8.15;;
70313;SDS011;57725;47.526;18.986;2022-08-19T05:49:49;9.73;;;8.38;;
70313;SDS011;57725;47.526;18.986;2022-08-19T05:52:18;9.18;;;8.32;;
70313;SDS011;57725;47.526;18.986;2022-08-19T05:54:46;8.70;;;7.90;;
70313;SDS011;57725;47.526;18.986;2022-08-19T05:57:12;9.43;;;8.55;;
70313;SDS011;57725;47.526;18.986;2022-08-19T05:59:42;9.18;;;8.27;;
70313;SDS011;57725;47.526;18.986;2022-08-19T06:02:13;9.38;;;8.57;;
70313;SDS011;57725;47.526;18.986;2022-08-19T06:04:41;8.85;;;8.05;;
70313;SDS011;57725;47.526;18.986;2022-08-19T06:07:12;9.40;;;8.50;;
70313;SDS011;57725;47.526;18.986;2022-08-19T06:09:41;9.23;;;8.43;;
70313;SDS011;57725;47.526;18.986;2022-08-19T06:12:09;9.13;;;8.23;;
70313;SDS011;57725;47.526;18.986;2022-08-19T06:14:35;9.65;;;8.75;;
70313;SDS011;57725;47.526;18.986;2022-08-19T06:17:00;9.80;;;8.75;;
70313;SDS011;57725;47.526;18.986;2022-08-19T06:19:27;9.82;;;8.93;;
70313;SDS011;57725;47.526;18.986;2022-08-19T06:21:55;9.80;;;8.75;;
70313;SDS011;57725;47.526;18.986;2022-08-19T06:24:27;10.50;;;9.40;;
70313;SDS011;57725;47.526;18.986;2022-08-19T06:29:23;10.38;;;9.38;;
70313;SDS011;57725;47.526;18.986;2022-08-19T06:31:50;9.93;;;9.02;;
70313;SDS011;57725;47.526;18.986;2022-08-19T06:34:20;10.75;;;8.70;;
70313;SDS011;57725;47.526;18.986;2022-08-19T06:36:47;9.65;;;8.77;;
70313;SDS011;57725;47.526;18.986;2022-08-19T06:39:17;10.27;;;9.38;;
70313;SDS011;57725;47.526;18.986;2022-08-19T06:41:54;9.70;;;8.77;;
70313;SDS011;57725;47.526;18.986;2022-08-19T06:44:25;9.77;;;8.75;;
70313;SDS011;57725;47.526;18.986;2022-08-19T06:46:52;9.43;;;8.52;;
70313;SDS011;57725;47.526;18.986;2022-08-19T06:49:20;9.52;;;8.60;;
70313;SDS011;57725;47.526;18.986;2022-08-19T06:51:47;10.00;;;9.00;;
70313;SDS011;57725;47.526;18.986;2022-08-19T06:54:14;9.23;;;8.35;;
70313;SDS011;57725;47.526;18.986;2022-08-19T06:56:41;9.70;;;8.70;;
70313;SDS011;57725;47.526;18.986;2022-08-19T06:59:18;9.82;;;8.90;;
70313;SDS011;57725;47.526;18.986;2022-08-19T07:01:48;10.27;;;9.27;;
70313;SDS011;57725;47.526;18.986;2022-08-19T07:04:17;8.88;;;8.07;;
70313;SDS011;57725;47.526;18.986;2022-08-19T07:06:50;10.02;;;9.02;;
70313;SDS011;57725;47.526;18.986;2022-08-19T07:09:23;9.98;;;8.82;;
70313;SDS011;57725;47.526;18.986;2022-08-19T07:11:52;9.38;;;8.48;;
70313;SDS011;57725;47.526;18.986;2022-08-19T07:14:27;9.85;;;8.75;;
70313;SDS011;57725;47.526;18.986;2022-08-19T07:16:55;9.48;;;8.57;;
70313;SDS011;57725;47.526;18.986;2022-08-19T07:19:23;9.35;;;8.45;;
70313;SDS011;57725;47.526;18.986;2022-08-19T07:21:54;10.05;;;9.15;;
70313;SDS011;57725;47.526;18.986;2022-08-19T07:24:20;9.77;;;8.77;;
70313;SDS011;57725;47.526;18.986;2022-08-19T07:26:49;9.57;;;8.60;;
70313;SDS011;57725;47.526;18.986;2022-08-19T07:29:15;9.70;;;8.80;;
70313;SDS011;57725;47.526;18.986;2022-08-19T07:31:43;10.05;;;9.02;;
70313;SDS011;57725;47.526;18.986;2022-08-19T07:34:11;9.70;;;8.77;;
70313;SDS011;57725;47.526;18.986;2022-08-19T07:36:40;9.50;;;8.60;;
70313;SDS011;57725;47.526;18.986;2022-08-19T07:39:11;9.77;;;8.88;;
70313;SDS011;57725;47.526;18.986;2022-08-19T07:41:39;10.07;;;9.02;;
70313;SDS011;57725;47.526;18.986;2022-08-19T07:44:07;10.30;;;9.30;;
70313;SDS011;57725;47.526;18.986;2022-08-19T07:46:34;9.95;;;8.95;;
70313;SDS011;57725;47.526;18.986;2022-08-19T07:49:07;9.63;;;8.63;;
70313;SDS011;57725;47.526;18.986;2022-08-19T07:51:47;9.73;;;8.73;;
70313;SDS011;57725;47.526;18.986;2022-08-19T07:54:24;9.57;;;8.48;;
70313;SDS011;57725;47.526;18.986;2022-08-19T07:56:52;9.75;;;8.70;;
70313;SDS011;57725;47.526;18.986;2022-08-19T07:59:18;10.25;;;9.25;;
70313;SDS011;57725;47.526;18.986;2022-08-19T08:01:45;9.00;;;8.10;;
70313;SDS011;57725;47.526;18.986;2022-08-19T08:04:14;9.45;;;8.52;;
70313;SDS011;57725;47.526;18.986;2022-08-19T08:06:59;10.27;;;9.27;;
70313;SDS011;57725;47.526;18.986;2022-08-19T08:09:43;9.93;;;9.02;;
70313;SDS011;57725;47.526;18.986;2022-08-19T08:12:14;9.95;;;8.95;;
70313;SDS011;57725;47.526;18.986;2022-08-19T08:14:45;9.68;;;8.73;;
70313;SDS011;57725;47.526;18.986;2022-08-19T08:17:13;9.35;;;8.35;;
70313;SDS011;57725;47.526;18.986;2022-08-19T08:19:40;10.52;;;9.25;;
70313;SDS011;57725;47.526;18.986;2022-08-19T08:22:06;9.43;;;8.43;;
70313;SDS011;57725;47.526;18.986;2022-08-19T08:24:33;9.55;;;8.55;;
70313;SDS011;57725;47.526;18.986;2022-08-19T08:27:01;10.95;;;9.25;;
70313;SDS011;57725;47.526;18.986;2022-08-19T08:29:27;10.43;;;9.38;;
70313;SDS011;57725;47.526;18.986;2022-08-19T08:31:56;11.00;;;9.02;;
70313;SDS011;57725;47.526;18.986;2022-08-19T08:34:22;12.02;;;9.40;;
70313;SDS011;57725;47.526;18.986;2022-08-19T08:36:48;9.32;;;8.30;;
70313;SDS011;57725;47.526;18.986;2022-08-19T08:39:16;9.02;;;8.07;;
70313;SDS011;57725;47.526;18.986;2022-08-19T08:44:28;12.43;;;8.45;;
70313;SDS011;57725;47.526;18.986;2022-08-19T08:47:06;9.48;;;8.57;;
70313;SDS011;57725;47.526;18.986;2022-08-19T08:50:13;9.68;;;8.55;;
70313;SDS011;57725;47.526;18.986;2022-08-19T08:52:39;10.27;;;8.82;;
70313;SDS011;57725;47.526;18.986;2022-08-19T08:55:14;11.77;;;8.10;;
70313;SDS011;57725;47.526;18.986;2022-08-19T08:57:49;10.20;;;9.05;;
70313;SDS011;57725;47.526;18.986;2022-08-19T09:00:35;8.98;;;8.18;;
70313;SDS011;57725;47.526;18.986;2022-08-19T09:03:09;9.48;;;8.00;;
70313;SDS011;57725;47.526;18.986;2022-08-19T09:06:07;10.82;;;8.68;;
70313;SDS011;57725;47.526;18.986;2022-08-19T09:08:47;11.52;;;8.73;;
70313;SDS011;57725;47.526;18.986;2022-08-19T09:17:06;11.32;;;8.35;;
70313;SDS011;57725;47.526;18.986;2022-08-19T09:19:34;10.00;;;8.45;;
70313;SDS011;57725;47.526;18.986;2022-08-19T09:22:01;9.63;;;8.35;;
70313;SDS011;57725;47.526;18.986;2022-08-19T09:24:26;9.45;;;8.35;;
70313;SDS011;57725;47.526;18.986;2022-08-19T09:26:52;10.40;;;8.68;;
70313;SDS011;57725;47.526;18.986;2022-08-19T09:29:19;12.15;;;8.40;;
70313;SDS011;57725;47.526;18.986;2022-08-19T09:31:45;9.60;;;8.60;;
70313;SDS011;57725;47.526;18.986;2022-08-19T09:34:11;9.75;;;8.25;;
70313;SDS011;57725;47.526;18.986;2022-08-19T09:36:36;9.75;;;8.43;;
70313;SDS011;57725;47.526;18.986;2022-08-19T09:39:03;8.65;;;7.85;;
70313;SDS011;57725;47.526;18.986;2022-08-19T09:41:32;12.15;;;8.18;;
70313;SDS011;57725;47.526;18.986;2022-08-19T09:44:02;8.85;;;7.28;;
70313;SDS011;57725;47.526;18.986;2022-08-19T09:46:28;10.57;;;8.30;;
70313;SDS011;57725;47.526;18.986;2022-08-19T09:48:56;10.30;;;8.50;;
70313;SDS011;57725;47.526;18.986;2022-08-19T09:51:24;11.30;;;8.85;;
70313;SDS011;57725;47.526;18.986;2022-08-19T09:53:53;8.43;;;7.60;;
70313;SDS011;57725;47.526;18.986;2022-08-19T09:56:19;9.55;;;8.05;;
70313;SDS011;57725;47.526;18.986;2022-08-19T09:58:45;8.98;;;8.13;;
70313;SDS011;57725;47.526;18.986;2022-08-19T10:01:18;12.52;;;9.48;;
70313;SDS011;57725;47.526;18.986;2022-08-19T10:03:49;10.18;;;8.68;;
70313;SDS011;57725;47.526;18.986;2022-08-19T10:06:17;9.73;;;8.13;;
70313;SDS011;57725;47.526;18.986;2022-08-19T10:08:43;8.65;;;7.75;;
70313;SDS011;57725;47.526;18.986;2022-08-19T10:11:08;9.77;;;8.32;;
70313;SDS011;57725;47.526;18.986;2022-08-19T10:13:34;10.10;;;9.02;;
70313;SDS011;57725;47.526;18.986;2022-08-19T10:16:03;10.10;;;8.30;;
70313;SDS011;57725;47.526;18.986;2022-08-19T10:18:30;8.80;;;7.80;;
70313;SDS011;57725;47.526;18.986;2022-08-19T10:21:18;8.30;;;7.47;;
70313;SDS011;57725;47.526;18.986;2022-08-19T10:23:45;9.40;;;8.18;;
70313;SDS011;57725;47.526;18.986;2022-08-19T10:26:22;8.65;;;7.75;;
70313;SDS011;57725;47.526;18.986;2022-08-19T10:28:53;9.23;;;7.88;;
70313;SDS011;57725;47.526;18.986;2022-08-19T10:31:32;9.25;;;7.78;;
70313;SDS011;57725;47.526;18.986;2022-08-19T10:33:59;9.10;;;8.20;;
70313;SDS011;57725;47.526;18.986;2022-08-19T10:36:26;8.10;;;7.15;;
70313;SDS011;57725;47.526;18.986;2022-08-19T10:38:55;10.98;;;8.18;;
70313;SDS011;57725;47.526;18.986;2022-08-19T10:41:24;8.60;;;7.72;;
70313;SDS011;57725;47.526;18.986;2022-08-19T10:43:52;9.32;;;7.75;;
70313;SDS011;57725;47.526;18.986;2022-08-19T10:46:23;10.70;;;7.50;;
70313;SDS011;57725;47.526;18.986;2022-08-19T10:48:50;8.52;;;7.63;;
70313;SDS011;57725;47.526;18.986;2022-08-19T10:51:16;8.25;;;7.35;;
70313;SDS011;57725;47.526;18.986;2022-08-19T10:54:01;12.50;;;8.25;;
70313;SDS011;57725;47.526;18.986;2022-08-19T10:56:27;8.40;;;7.20;;
70313;SDS011;57725;47.526;18.986;2022-08-19T10:59:14;11.43;;;7.28;;
70313;SDS011;57725;47.526;18.986;2022-08-19T11:01:41;9.35;;;7.78;;
70313;SDS011;57725;47.526;18.986;2022-08-19T11:04:08;8.65;;;6.80;;
70313;SDS011;57725;47.526;18.986;2022-08-19T11:06:38;9.77;;;7.75;;
70313;SDS011;57725;47.526;18.986;2022-08-19T11:09:08;10.63;;;7.60;;
70313;SDS011;57725;47.526;18.986;2022-08-19T11:11:36;8.02;;;6.82;;
70313;SDS011;57725;47.526;18.986;2022-08-19T11:14:16;10.65;;;6.88;;
70313;SDS011;57725;47.526;18.986;2022-08-19T11:16:51;17.25;;;7.78;;
70313;SDS011;57725;47.526;18.986;2022-08-19T11:19:23;9.68;;;7.50;;
70313;SDS011;57725;47.526;18.986;2022-08-19T11:21:49;9.73;;;7.50;;
70313;SDS011;57725;47.526;18.986;2022-08-19T11:24:20;8.73;;;6.90;;
70313;SDS011;57725;47.526;18.986;2022-08-19T11:26:52;10.48;;;7.68;;
70313;SDS011;57725;47.526;18.986;2022-08-19T11:29:24;9.75;;;7.55;;
70313;SDS011;57725;47.526;18.986;2022-08-19T11:31:53;8.95;;;7.45;;
70313;SDS011;57725;47.526;18.986;2022-08-19T11:34:25;10.25;;;6.88;;
70313;SDS011;57725;47.526;18.986;2022-08-19T11:36:59;10.68;;;7.93;;
70313;SDS011;57725;47.526;18.986;2022-08-19T11:39:27;10.68;;;7.65;;
70313;SDS011;57725;47.526;18.986;2022-08-19T11:41:54;8.98;;;7.35;;
70313;SDS011;57725;47.526;18.986;2022-08-19T11:44:25;8.75;;;7.57;;
70313;SDS011;57725;47.526;18.986;2022-08-19T11:46:55;11.68;;;7.93;;
70313;SDS011;57725;47.526;18.986;2022-08-19T11:49:21;8.68;;;7.78;;
70313;SDS011;57725;47.526;18.986;2022-08-19T11:51:51;13.63;;;7.80;;
70313;SDS011;57725;47.526;18.986;2022-08-19T11:54:19;11.02;;;7.70;;
70313;SDS011;57725;47.526;18.986;2022-08-19T11:56:44;10.05;;;7.32;;
70313;SDS011;57725;47.526;18.986;2022-08-19T11:59:11;9.32;;;7.68;;
70313;SDS011;57725;47.526;18.986;2022-08-19T12:01:36;8.07;;;7.28;;
70313;SDS011;57725;47.526;18.986;2022-08-19T12:04:05;8.27;;;7.25;;
70313;SDS011;57725;47.526;18.986;2022-08-19T12:06:32;8.80;;;7.05;;
70313;SDS011;57725;47.526;18.986;2022-08-19T12:09:04;9.48;;;7.28;;
70313;SDS011;57725;47.526;18.986;2022-08-19T12:11:33;9.55;;;8.10;;
70313;SDS011;57725;47.526;18.986;2022-08-19T12:13:59;8.02;;;6.88;;
70313;SDS011;57725;47.526;18.986;2022-08-19T12:16:27;8.82;;;7.90;;
70313;SDS011;57725;47.526;18.986;2022-08-19T12:18:55;11.02;;;7.50;;
70313;SDS011;57725;47.526;18.986;2022-08-19T12:21:28;12.15;;;7.45;;
70313;SDS011;57725;47.526;18.986;2022-08-19T12:23:54;8.63;;;7.10;;
70313;SDS011;57725;47.526;18.986;2022-08-19T12:26:21;11.35;;;7.72;;
70313;SDS011;57725;47.526;18.986;2022-08-19T12:28:47;8.90;;;7.38;;
70313;SDS011;57725;47.526;18.986;2022-08-19T12:31:15;8.90;;;7.30;;
70313;SDS011;57725;47.526;18.986;2022-08-19T12:33:42;10.40;;;8.00;;
70313;SDS011;57725;47.526;18.986;2022-08-19T12:36:08;12.30;;;7.93;;
70313;SDS011;57725;47.526;18.986;2022-08-19T12:38:36;10.07;;;7.55;;
70313;SDS011;57725;47.526;18.986;2022-08-19T12:41:05;10.60;;;8.27;;
70313;SDS011;57725;47.526;18.986;2022-08-19T12:43:32;10.05;;;8.13;;
70313;SDS011;57725;47.526;18.986;2022-08-19T12:46:01;13.20;;;8.65;;
70313;SDS011;57725;47.526;18.986;2022-08-19T12:48:30;10.48;;;7.50;;
70313;SDS011;57725;47.526;18.986;2022-08-19T12:50:56;10.68;;;7.72;;
70313;SDS011;57725;47.526;18.986;2022-08-19T12:53:21;10.60;;;8.48;;
70313;SDS011;57725;47.526;18.986;2022-08-19T12:55:47;10.70;;;8.35;;
70313;SDS011;57725;47.526;18.986;2022-08-19T12:58:15;16.98;;;8.63;;
70313;SDS011;57725;47.526;18.986;2022-08-19T13:00:41;9.90;;;8.30;;
70313;SDS011;57725;47.526;18.986;2022-08-19T13:03:07;11.77;;;8.53;;
70313;SDS011;57725;47.526;18.986;2022-08-19T13:05:33;12.20;;;9.00;;
70313;SDS011;57725;47.526;18.986;2022-08-19T13:08:05;12.40;;;9.40;;
70313;SDS011;57725;47.526;18.986;2022-08-19T13:10:34;12.05;;;9.00;;
70313;SDS011;57725;47.526;18.986;2022-08-19T13:13:05;12.13;;;9.48;;
70313;SDS011;57725;47.526;18.986;2022-08-19T13:15:33;14.80;;;9.18;;
70313;SDS011;57725;47.526;18.986;2022-08-19T13:18:05;9.87;;;8.40;;
70313;SDS011;57725;47.526;18.986;2022-08-19T13:20:31;10.82;;;8.98;;
70313;SDS011;57725;47.526;18.986;2022-08-19T13:22:57;14.23;;;9.65;;
70313;SDS011;57725;47.526;18.986;2022-08-19T13:25:22;13.35;;;9.80;;
70313;SDS011;57725;47.526;18.986;2022-08-19T13:27:52;12.23;;;9.43;;
70313;SDS011;57725;47.526;18.986;2022-08-19T13:30:19;15.40;;;8.68;;
70313;SDS011;57725;47.526;18.986;2022-08-19T13:33:03;12.18;;;9.43;;
70313;SDS011;57725;47.526;18.986;2022-08-19T13:35:48;10.05;;;8.63;;
70313;SDS011;57725;47.526;18.986;2022-08-19T13:38:22;12.60;;;9.82;;
70313;SDS011;57725;47.526;18.986;2022-08-19T13:40:51;13.32;;;9.82;;
70313;SDS011;57725;47.526;18.986;2022-08-19T13:43:21;11.82;;;8.98;;
70313;SDS011;57725;47.526;18.986;2022-08-19T13:45:48;11.90;;;9.60;;
70313;SDS011;57725;47.526;18.986;2022-08-19T13:48:17;12.88;;;9.00;;
70313;SDS011;57725;47.526;18.986;2022-08-19T13:50:45;12.63;;;8.98;;
70313;SDS011;57725;47.526;18.986;2022-08-19T13:53:12;10.43;;;8.38;;
70313;SDS011;57725;47.526;18.986;2022-08-19T13:55:44;11.38;;;8.48;;
70313;SDS011;57725;47.526;18.986;2022-08-19T13:58:10;9.52;;;8.00;;
70313;SDS011;57725;47.526;18.986;2022-08-19T14:00:39;9.23;;;8.13;;
70313;SDS011;57725;47.526;18.986;2022-08-19T14:03:09;14.45;;;8.20;;
70313;SDS011;57725;47.526;18.986;2022-08-19T14:05:37;11.40;;;7.88;;
70313;SDS011;57725;47.526;18.986;2022-08-19T14:08:02;10.30;;;6.93;;
70313;SDS011;57725;47.526;18.986;2022-08-19T14:10:28;12.82;;;8.43;;
70313;SDS011;57725;47.526;18.986;2022-08-19T14:12:58;9.70;;;7.40;;
70313;SDS011;57725;47.526;18.986;2022-08-19T14:15:28;12.73;;;8.00;;
70313;SDS011;57725;47.526;18.986;2022-08-19T14:17:56;9.13;;;7.43;;
70313;SDS011;57725;47.526;18.986;2022-08-19T14:20:24;11.98;;;7.95;;
70313;SDS011;57725;47.526;18.986;2022-08-19T14:22:50;12.13;;;7.75;;
70313;SDS011;57725;47.526;18.986;2022-08-19T14:25:20;10.65;;;7.50;;
70313;SDS011;57725;47.526;18.986;2022-08-19T14:27:48;9.85;;;6.70;;
70313;SDS011;57725;47.526;18.986;2022-08-19T14:30:15;10.38;;;6.65;;
70313;SDS011;57725;47.526;18.986;2022-08-19T14:32:42;11.38;;;7.25;;
70313;SDS011;57725;47.526;18.986;2022-08-19T14:35:11;11.30;;;6.95;;
70313;SDS011;57725;47.526;18.986;2022-08-19T14:37:41;9.65;;;6.88;;
70313;SDS011;57725;47.526;18.986;2022-08-19T14:40:07;11.23;;;7.00;;
70313;SDS011;57725;47.526;18.986;2022-08-19T14:42:36;9.90;;;7.43;;
70313;SDS011;57725;47.526;18.986;2022-08-19T14:45:04;9.80;;;6.55;;
70313;SDS011;57725;47.526;18.986;2022-08-19T14:47:30;11.95;;;6.55;;
70313;SDS011;57725;47.526;18.986;2022-08-19T14:49:56;12.68;;;6.47;;
70313;SDS011;57725;47.526;18.986;2022-08-19T14:52:24;10.77;;;6.82;;
70313;SDS011;57725;47.526;18.986;2022-08-19T14:54:50;9.63;;;6.05;;
70313;SDS011;57725;47.526;18.986;2022-08-19T14:57:15;10.40;;;5.93;;
70313;SDS011;57725;47.526;18.986;2022-08-19T14:59:46;10.00;;;6.90;;